Airport Name : Falls Intl

Other Name : Falls Intl

ICAO : KINL

IATA : INL

FAA : INL

Latitude : 48.566186

Longitude : -93.403067

Country : United States

Local Date and Time : 18 Jul 2024 13:08

 

TAF (Terminal Aerodrome Forecast)

KINL 181724Z 1818/1918 26007KT P6SM BKN040 FM190200 VRB03KT P6SM FEW250

 

METAR (METeorological Aerodrome Report)

KINL 181754Z AUTO 26007KT 220V280 10SM BKN048 23/11 A3017 RMK AO2 SLP217 T02280111 10239 20100 56009

KINL 181654Z AUTO 26006KT 10SM BKN049 23/11 A3017 RMK AO2 SLP219 T02280111

KINL 181554Z AUTO 27008KT 10SM SCT040 21/11 A3018 RMK AO2 SLP224 T02110111

KINL 181454Z AUTO VRB04KT 10SM CLR 19/12 A3019 RMK AO2 SLP228 T01940122 58004